Time;durP1;ratioP1;P1;durP2;ratioP2;P2;SDS_P1;SDS_P2;PMS_P1;PMS_P2;Temp;Humidity;BMP_temperature;BMP_pressure;BME280_temperature;BME280_humidity;BME280_pressure;Samples;Min_cycle;Max_cycle;Signal;HPM_P1;HPM_P2
2023/10/15 00:00:18;;;;;;;10.00;7.07;;;;;;;;;;6220222;28;20046;-85
2023/10/15 00:03:20;;;;;;;11.48;7.32;;;;;;;;;;6225354;28;20046;-85
2023/10/15 00:06:22;;;;;;;12.55;6.63;;;;;;;;;;6226313;28;20420;-84
2023/10/15 00:09:24;;;;;;;14.63;8.80;;;;;;;;;;6225399;28;20052;-85
2023/10/15 00:12:26;;;;;;;13.13;6.95;;;;;;;;;;6222709;28;20116;-85
2023/10/15 00:15:31;;;;;;;11.15;5.57;;;;;;;;;;6217560;28;20060;-85
2023/10/15 00:18:33;;;;;;;10.40;5.15;;;;;;;;;;6234126;28;20397;-85
2023/10/15 00:21:36;;;;;;;8.95;4.70;;;;;;;;;;6210843;28;20123;-85
2023/10/15 00:24:40;;;;;;;8.57;4.30;;;;;;;;;;6235150;28;20491;-85
2023/10/15 00:27:42;;;;;;;9.55;4.85;;;;;;;;;;6239472;28;20045;-86
2023/10/15 00:30:44;;;;;;;11.87;5.70;;;;;;;;;;6219608;28;20119;-84
2023/10/15 00:33:46;;;;;;;15.32;7.22;;;;;;;;;;6227364;28;20447;-84
2023/10/15 00:36:48;;;;;;;16.77;9.27;;;;;;;;;;6235103;28;20069;-84
2023/10/15 00:39:50;;;;;;;13.70;6.15;;;;;;;;;;6236999;28;20049;-85
2023/10/15 00:42:52;;;;;;;9.70;6.03;;;;;;;;;;6223263;28;20037;-84
2023/10/15 00:45:54;;;;;;;11.63;5.85;;;;;;;;;;6218196;28;20393;-85
2023/10/15 00:48:57;;;;;;;12.70;6.25;;;;;;;;;;6227150;28;20060;-85
2023/10/15 00:52:04;;;;;;;8.75;5.57;;;;;;;;;;6237173;28;20048;-84
2023/10/15 00:55:06;;;;;;;11.07;5.60;;;;;;;;;;6204704;28;20046;-85
2023/10/15 00:58:09;;;;;;;10.70;5.40;;;;;;;;;;6218739;28;20041;-85
2023/10/15 01:04:24;;;;;;;10.07;5.68;;;;;;;;;;6229086;28;20045;-84
2023/10/15 01:07:41;;;;;;;11.73;5.40;;;;;;;;;;6229312;28;20042;-86
2023/10/15 01:10:43;;;;;;;11.05;4.78;;;;;;;;;;6216831;28;20037;-87
2023/10/15 01:13:45;;;;;;;10.37;4.80;;;;;;;;;;6208803;28;20045;-87
2023/10/15 01:16:47;;;;;;;11.85;5.72;;;;;;;;;;6232081;28;20624;-87
2023/10/15 01:19:51;;;;;;;9.98;5.15;;;;;;;;;;6226524;28;20041;-86
2023/10/15 01:22:53;;;;;;;11.48;5.05;;;;;;;;;;6225608;28;20045;-86
2023/10/15 01:26:12;;;;;;;10.80;4.88;;;;;;;;;;6212808;28;20049;-87
2023/10/15 01:29:19;;;;;;;11.50;5.50;;;;;;;;;;6213415;28;20053;-86
2023/10/15 01:32:22;;;;;;;10.00;4.53;;;;;;;;;;6231234;28;20056;-87
2023/10/15 01:35:24;;;;;;;9.60;4.70;;;;;;;;;;6227540;28;20041;-87
2023/10/15 01:38:28;;;;;;;13.70;5.70;;;;;;;;;;6252991;28;20124;-87
2023/10/15 01:41:31;;;;;;;9.68;5.57;;;;;;;;;;6204872;28;20508;-86
2023/10/15 01:44:39;;;;;;;11.45;4.82;;;;;;;;;;6208190;28;20041;-86
2023/10/15 01:50:51;;;;;;;13.63;5.95;;;;;;;;;;6234495;28;20041;-86
2023/10/15 01:53:56;;;;;;;8.20;5.15;;;;;;;;;;6205250;28;20045;-86
2023/10/15 01:56:57;;;;;;;9.18;4.95;;;;;;;;;;6222618;28;20468;-86
2023/10/15 02:00:12;;;;;;;9.20;4.20;;;;;;;;;;6218294;28;20415;-86
2023/10/15 02:03:15;;;;;;;10.45;4.28;;;;;;;;;;6205272;28;20061;-86
2023/10/15 02:06:19;;;;;;;9.68;4.25;;;;;;;;;;6208360;28;20041;-86
2023/10/15 02:09:23;;;;;;;6.88;3.90;;;;;;;;;;6219484;28;20049;-86
2023/10/15 02:12:24;;;;;;;8.02;4.30;;;;;;;;;;6202241;28;20524;-86
2023/10/15 02:15:32;;;;;;;9.27;4.45;;;;;;;;;;6235014;28;20049;-86
2023/10/15 02:18:35;;;;;;;7.72;3.97;;;;;;;;;;6222555;28;20252;-86
2023/10/15 02:21:49;;;;;;;11.88;4.80;;;;;;;;;;6236801;28;20045;-86
2023/10/15 02:24:56;;;;;;;6.93;3.88;;;;;;;;;;6203466;28;20049;-85
2023/10/15 02:27:58;;;;;;;6.15;3.83;;;;;;;;;;6202626;28;20044;-86
2023/10/15 02:34:16;;;;;;;10.90;3.67;;;;;;;;;;6221539;28;20049;-85
2023/10/15 02:37:19;;;;;;;5.22;3.08;;;;;;;;;;6205861;28;20057;-86
2023/10/15 02:40:21;;;;;;;4.75;2.72;;;;;;;;;;6218231;28;20052;-85
2023/10/15 02:43:27;;;;;;;7.22;2.92;;;;;;;;;;6216173;28;20128;-86
2023/10/15 02:49:50;;;;;;;5.88;3.60;;;;;;;;;;6218490;28;20026;-86
2023/10/15 02:52:54;;;;;;;6.07;4.38;;;;;;;;;;6232514;28;20042;-86
2023/10/15 02:55:58;;;;;;;9.25;5.38;;;;;;;;;;6203326;28;20152;-86
2023/10/15 02:59:00;;;;;;;;;;;;;;;;;;6199529;28;20045;-86
2023/10/15 03:02:06;;;;;;;13.45;5.93;;;;;;;;;;6220630;28;19982;-86
2023/10/15 03:05:14;;;;;;;12.73;6.65;;;;;;;;;;6194441;28;20245;-86
2023/10/15 03:08:20;;;;;;;9.32;4.50;;;;;;;;;;6225535;28;20049;-84
2023/10/15 03:11:32;;;;;;;7.88;4.75;;;;;;;;;;6228836;28;20057;-85
2023/10/15 03:14:34;;;;;;;7.18;4.53;;;;;;;;;;6207493;28;20042;-85
2023/10/15 03:17:40;;;;;;;8.07;4.90;;;;;;;;;;6218159;28;20049;-84
2023/10/15 03:20:49;;;;;;;7.82;4.30;;;;;;;;;;6197125;28;20527;-85
2023/10/15 03:23:57;;;;;;;7.90;4.07;;;;;;;;;;6212548;28;20126;-86
2023/10/15 03:26:59;;;;;;;6.97;4.18;;;;;;;;;;6197561;28;20076;-86
2023/10/15 03:30:01;;;;;;;8.40;4.38;;;;;;;;;;6235252;28;20045;-85
2023/10/15 03:33:03;;;;;;;7.20;4.13;;;;;;;;;;6201096;28;20045;-85
2023/10/15 03:36:12;;;;;;;8.97;4.83;;;;;;;;;;6232655;28;20511;-85
2023/10/15 03:39:53;;;;;;;7.50;4.00;;;;;;;;;;6216250;28;20731;-86
2023/10/15 03:42:40;;;;;;;6.30;4.18;;;;;;;;;;6216864;28;20049;-84
2023/10/15 03:45:51;;;;;;;6.75;4.25;;;;;;;;;;6213440;28;20049;-86
2023/10/15 03:48:53;;;;;;;6.18;3.72;;;;;;;;;;6234981;28;20045;-85
2023/10/15 03:51:55;;;;;;;7.57;4.03;;;;;;;;;;6217069;28;20138;-85
2023/10/15 03:54:57;;;;;;;5.25;3.70;;;;;;;;;;6241002;28;20064;-86
2023/10/15 03:57:59;;;;;;;7.60;3.80;;;;;;;;;;6257694;28;20109;-85
2023/10/15 04:01:17;;;;;;;5.82;2.92;;;;;;;;;;6222803;28;20053;-86
2023/10/15 04:04:20;;;;;;;5.13;3.42;;;;;;;;;;6226317;28;20050;-86
2023/10/15 04:07:23;;;;;;;5.82;3.00;;;;;;;;;;6209848;28;20454;-84
2023/10/15 04:10:33;;;;;;;4.85;3.17;;;;;;;;;;6221505;28;20051;-85
2023/10/15 04:13:35;;;;;;;8.23;3.17;;;;;;;;;;6222337;28;20042;-86
2023/10/15 04:16:37;;;;;;;7.25;3.20;;;;;;;;;;6221095;28;20045;-85
2023/10/15 04:19:39;;;;;;;4.65;2.65;;;;;;;;;;6202500;28;20053;-84
2023/10/15 04:22:44;;;;;;;7.13;3.45;;;;;;;;;;6223011;28;20045;-85
2023/10/15 04:25:47;;;;;;;5.60;3.53;;;;;;;;;;6213173;28;20060;-86
2023/10/15 04:28:52;;;;;;;;;;;;;;;;;;6230979;28;20056;-84
2023/10/15 04:32:01;;;;;;;6.68;3.17;;;;;;;;;;6210233;28;19921;-84
2023/10/15 04:35:08;;;;;;;4.53;2.83;;;;;;;;;;6207538;28;20504;-84
2023/10/15 04:38:27;;;;;;;5.10;3.30;;;;;;;;;;6205780;28;20061;-84
2023/10/15 04:41:33;;;;;;;6.28;3.30;;;;;;;;;;6215794;28;20048;-84
2023/10/15 04:44:34;;;;;;;6.72;3.00;;;;;;;;;;6204429;28;20056;-84
2023/10/15 04:47:41;;;;;;;6.15;2.85;;;;;;;;;;6211897;28;20097;-84
2023/10/15 04:50:43;;;;;;;5.60;2.60;;;;;;;;;;6192941;28;20120;-84
2023/10/15 04:53:48;;;;;;;4.78;3.05;;;;;;;;;;6219932;28;20053;-85
2023/10/15 04:56:51;;;;;;;7.90;3.10;;;;;;;;;;6237670;28;20045;-84
2023/10/15 04:59:53;;;;;;;8.10;3.10;;;;;;;;;;6235555;28;20552;-86
2023/10/15 05:02:54;;;;;;;5.32;3.15;;;;;;;;;;6207010;28;20632;-85
2023/10/15 05:06:02;;;;;;;5.45;2.90;;;;;;;;;;6216658;28;20423;-84
2023/10/15 05:09:08;;;;;;;4.38;2.50;;;;;;;;;;6237657;28;20065;-85
2023/10/15 05:12:12;;;;;;;3.75;2.25;;;;;;;;;;6217722;28;20048;-86
2023/10/15 05:15:14;;;;;;;3.20;2.22;;;;;;;;;;6207829;28;20092;-86
2023/10/15 05:18:18;;;;;;;4.07;2.55;;;;;;;;;;6211640;28;20056;-85
2023/10/15 05:21:21;;;;;;;4.97;2.53;;;;;;;;;;6219375;28;20301;-84
2023/10/15 05:24:22;;;;;;;4.78;2.60;;;;;;;;;;6213942;28;20050;-85
2023/10/15 05:27:24;;;;;;;7.72;3.40;;;;;;;;;;6212919;28;20042;-85
2023/10/15 05:30:26;;;;;;;6.25;2.97;;;;;;;;;;6197796;28;20053;-86
2023/10/15 05:33:28;;;;;;;10.73;3.47;;;;;;;;;;6213674;28;20045;-85
2023/10/15 05:36:30;;;;;;;6.55;3.47;;;;;;;;;;6215827;28;20133;-85
2023/10/15 05:39:31;;;;;;;8.13;3.13;;;;;;;;;;6216505;28;20122;-85
2023/10/15 05:42:34;;;;;;;5.57;2.80;;;;;;;;;;6233493;28;20048;-86
2023/10/15 05:45:36;;;;;;;6.47;3.37;;;;;;;;;;6233314;28;20049;-86
2023/10/15 05:48:37;;;;;;;5.25;3.20;;;;;;;;;;6237320;28;20069;-86
2023/10/15 05:51:39;;;;;;;4.78;2.95;;;;;;;;;;6217120;28;20884;-85
2023/10/15 05:54:41;;;;;;;5.88;2.75;;;;;;;;;;6230576;28;20080;-86
2023/10/15 05:57:43;;;;;;;5.45;2.85;;;;;;;;;;6213968;28;20042;-86
2023/10/15 06:00:45;;;;;;;7.97;3.03;;;;;;;;;;6215647;28;20049;-85
2023/10/15 06:03:47;;;;;;;6.75;2.63;;;;;;;;;;6216740;28;20061;-85
2023/10/15 06:06:50;;;;;;;6.88;2.88;;;;;;;;;;6203507;28;20122;-82
2023/10/15 06:09:52;;;;;;;7.15;3.15;;;;;;;;;;6237994;28;20854;-83
2023/10/15 06:12:53;;;;;;;10.13;3.67;;;;;;;;;;6207693;28;20056;-80
2023/10/15 06:15:55;;;;;;;7.05;4.28;;;;;;;;;;6239506;28;20045;-82
2023/10/15 06:18:57;;;;;;;9.60;4.40;;;;;;;;;;6223965;28;20045;-81
2023/10/15 06:21:59;;;;;;;5.72;3.47;;;;;;;;;;6224558;28;20072;-82
2023/10/15 06:25:04;;;;;;;11.40;4.60;;;;;;;;;;6225776;28;20052;-81
2023/10/15 06:28:06;;;;;;;11.25;6.35;;;;;;;;;;6228858;28;20064;-83
2023/10/15 06:31:09;;;;;;;15.68;7.70;;;;;;;;;;6229041;28;20033;-82
2023/10/15 06:34:11;;;;;;;12.00;6.90;;;;;;;;;;6215757;28;20049;-84
2023/10/15 06:37:12;;;;;;;16.08;9.95;;;;;;;;;;6230186;28;20439;-82
2023/10/15 06:40:15;;;;;;;12.55;5.65;;;;;;;;;;6214406;28;20049;-82
2023/10/15 06:43:24;;;;;;;10.82;4.07;;;;;;;;;;6231996;28;20042;-82
2023/10/15 06:46:26;;;;;;;6.57;3.83;;;;;;;;;;6216960;28;20045;-84
2023/10/15 06:49:28;;;;;;;6.32;4.03;;;;;;;;;;6200023;28;20053;-84
2023/10/15 06:52:29;;;;;;;8.45;4.10;;;;;;;;;;6245771;28;20404;-81
2023/10/15 06:55:33;;;;;;;8.50;4.70;;;;;;;;;;6222755;28;20041;-83
2023/10/15 06:58:35;;;;;;;9.25;4.28;;;;;;;;;;6229934;28;20041;-81
2023/10/15 07:01:38;;;;;;;10.40;4.63;;;;;;;;;;6235294;28;20611;-81
2023/10/15 07:04:40;;;;;;;7.45;4.25;;;;;;;;;;6239739;28;20055;-82
2023/10/15 07:07:45;;;;;;;6.82;4.05;;;;;;;;;;6230972;28;20046;-83
2023/10/15 07:10:49;;;;;;;7.18;3.90;;;;;;;;;;6210711;28;20065;-82
2023/10/15 07:13:51;;;;;;;8.77;4.63;;;;;;;;;;6212010;28;20129;-83
2023/10/15 07:16:52;;;;;;;8.52;4.75;;;;;;;;;;6240170;28;20553;-84
2023/10/15 07:19:54;;;;;;;10.02;5.40;;;;;;;;;;6224862;28;20033;-84
2023/10/15 07:22:59;;;;;;;11.38;6.30;;;;;;;;;;6225351;28;20045;-84
2023/10/15 07:26:02;;;;;;;9.32;4.57;;;;;;;;;;6234401;28;20048;-83
2023/10/15 07:29:05;;;;;;;10.27;5.20;;;;;;;;;;6235783;28;20672;-83
2023/10/15 07:32:07;;;;;;;11.52;5.05;;;;;;;;;;6223706;28;20052;-84
2023/10/15 07:35:13;;;;;;;11.50;4.70;;;;;;;;;;6205676;28;20046;-83
2023/10/15 07:38:15;;;;;;;8.63;4.07;;;;;;;;;;6229091;28;20450;-82
2023/10/15 07:41:18;;;;;;;6.03;3.80;;;;;;;;;;6222075;28;20044;-82
2023/10/15 07:44:20;;;;;;;6.88;3.97;;;;;;;;;;6224724;28;20948;-80
2023/10/15 07:47:21;;;;;;;6.68;4.13;;;;;;;;;;6213979;28;20060;-80
2023/10/15 07:50:23;;;;;;;7.45;3.30;;;;;;;;;;6212131;28;20056;-81
2023/10/15 07:53:25;;;;;;;7.10;3.40;;;;;;;;;;6213303;28;20148;-80
2023/10/15 07:56:27;;;;;;;5.88;2.90;;;;;;;;;;6214479;28;20033;-80
2023/10/15 07:59:29;;;;;;;5.30;3.05;;;;;;;;;;6213817;28;20087;-80
2023/10/15 08:02:31;;;;;;;4.97;2.70;;;;;;;;;;6213820;28;20147;-80
2023/10/15 08:05:33;;;;;;;4.97;3.38;;;;;;;;;;6235756;28;20951;-84
2023/10/15 08:08:37;;;;;;;4.22;3.40;;;;;;;;;;6207598;28;20061;-83
2023/10/15 08:11:41;;;;;;;5.38;3.30;;;;;;;;;;6230866;28;20037;-83
2023/10/15 08:14:42;;;;;;;4.75;3.33;;;;;;;;;;6235351;28;20144;-83
2023/10/15 08:17:44;;;;;;;5.80;3.30;;;;;;;;;;6240806;28;20046;-85
2023/10/15 08:20:46;;;;;;;5.63;3.63;;;;;;;;;;6215434;28;20053;-84
2023/10/15 08:23:48;;;;;;;5.32;3.17;;;;;;;;;;6221845;28;20057;-84
2023/10/15 08:26:50;;;;;;;7.43;3.42;;;;;;;;;;6223039;28;20041;-83
2023/10/15 08:29:51;;;;;;;4.80;3.20;;;;;;;;;;6221669;28;20041;-86
2023/10/15 08:32:53;;;;;;;5.95;2.75;;;;;;;;;;6228256;28;20115;-84
2023/10/15 08:35:55;;;;;;;4.18;3.15;;;;;;;;;;6209118;28;20543;-84
2023/10/15 08:38:57;;;;;;;3.65;2.55;;;;;;;;;;6227357;28;20053;-84
2023/10/15 08:42:00;;;;;;;4.28;2.35;;;;;;;;;;6222639;28;20424;-85
2023/10/15 08:45:05;;;;;;;5.10;2.90;;;;;;;;;;6222479;28;20053;-84
2023/10/15 08:48:09;;;;;;;2.75;2.20;;;;;;;;;;6205487;28;20053;-85
2023/10/15 08:51:13;;;;;;;6.20;3.30;;;;;;;;;;6240346;28;20051;-82
2023/10/15 08:54:17;;;;;;;5.22;2.65;;;;;;;;;;6222412;28;20088;-82
2023/10/15 08:57:19;;;;;;;4.95;2.75;;;;;;;;;;6239177;28;20041;-83
2023/10/15 09:00:25;;;;;;;2.85;2.30;;;;;;;;;;6238266;28;20536;-83
2023/10/15 09:03:33;;;;;;;3.10;2.25;;;;;;;;;;6215136;28;20050;-84
2023/10/15 09:06:36;;;;;;;2.95;1.92;;;;;;;;;;6222178;28;20079;-83
2023/10/15 09:09:38;;;;;;;4.82;1.90;;;;;;;;;;6207525;28;20065;-82
2023/10/15 09:12:40;;;;;;;4.30;1.85;;;;;;;;;;6218879;28;20057;-82
2023/10/15 09:15:43;;;;;;;3.42;1.73;;;;;;;;;;6234081;28;20096;-82
2023/10/15 09:18:45;;;;;;;2.03;1.40;;;;;;;;;;6216737;28;20045;-83
2023/10/15 09:21:48;;;;;;;1.70;1.58;;;;;;;;;;6210112;28;20056;-83
2023/10/15 09:24:50;;;;;;;2.85;1.67;;;;;;;;;;6216499;28;20063;-82
2023/10/15 09:27:56;;;;;;;3.92;2.08;;;;;;;;;;6216764;28;20124;-86
2023/10/15 09:31:09;;;;;;;3.53;2.17;;;;;;;;;;6219341;28;20052;-83
2023/10/15 09:34:12;;;;;;;2.67;1.60;;;;;;;;;;6205032;28;20102;-82
2023/10/15 09:37:15;;;;;;;2.20;1.07;;;;;;;;;;6221286;28;20041;-82
2023/10/15 09:40:20;;;;;;;3.45;1.20;;;;;;;;;;6241850;28;20050;-85
2023/10/15 09:43:25;;;;;;;0.90;0.90;;;;;;;;;;6207181;28;20064;-84
2023/10/15 09:46:29;;;;;;;2.25;1.13;;;;;;;;;;6225195;28;20116;-84
2023/10/15 09:49:32;;;;;;;1.65;1.08;;;;;;;;;;6222257;28;20037;-85
2023/10/15 09:52:35;;;;;;;;;;;;;;;;;;6228177;28;20060;-85
2023/10/15 09:55:38;;;;;;;2.70;1.30;;;;;;;;;;6241675;28;19935;-83
2023/10/15 09:58:42;;;;;;;2.10;1.05;;;;;;;;;;6238193;28;20068;-83
2023/10/15 10:01:49;;;;;;;3.80;1.40;;;;;;;;;;6221332;28;20034;-83
2023/10/15 10:05:05;;;;;;;3.30;1.08;;;;;;;;;;6239010;28;20049;-84
2023/10/15 10:08:53;;;;;;;2.10;1.38;;;;;;;;;;6237510;28;20111;-86
2023/10/15 10:12:15;;;;;;;1.17;1.00;;;;;;;;;;6176304;28;20124;-83
2023/10/15 10:15:54;;;;;;;2.05;1.35;;;;;;;;;;6242017;28;20064;-83
2023/10/15 10:18:56;;;;;;;3.08;1.20;;;;;;;;;;6241803;28;20041;-84
2023/10/15 10:21:58;;;;;;;1.88;1.30;;;;;;;;;;6226608;28;20503;-83
2023/10/15 10:25:01;;;;;;;3.58;1.13;;;;;;;;;;6226788;28;20719;-83
2023/10/15 10:28:16;;;;;;;3.03;1.00;;;;;;;;;;6228950;28;20051;-83
2023/10/15 10:31:21;;;;;;;1.90;1.10;;;;;;;;;;6228760;28;20065;-84
2023/10/15 10:34:29;;;;;;;4.63;1.52;;;;;;;;;;6231948;28;20056;-84
2023/10/15 10:37:32;;;;;;;2.15;1.17;;;;;;;;;;6230581;28;20049;-84
2023/10/15 10:40:59;;;;;;;2.25;1.00;;;;;;;;;;6243004;28;20051;-83
2023/10/15 10:44:21;;;;;;;1.88;1.05;;;;;;;;;;6213419;28;20041;-83
2023/10/15 10:47:35;;;;;;;;;;;;;;;;;;6213486;28;20084;-83
2023/10/15 10:50:46;;;;;;;2.05;1.10;;;;;;;;;;6219331;28;19934;-83
2023/10/15 10:54:00;;;;;;;2.45;0.88;;;;;;;;;;6247274;28;20048;-83
2023/10/15 10:57:06;;;;;;;2.35;0.98;;;;;;;;;;6229981;28;20046;-83
2023/10/15 11:00:12;;;;;;;3.50;1.00;;;;;;;;;;6211527;28;20092;-84
2023/10/15 11:03:14;;;;;;;0.82;0.80;;;;;;;;;;6223777;28;20059;-84
2023/10/15 11:06:15;;;;;;;1.63;0.77;;;;;;;;;;6235783;28;20061;-83
2023/10/15 11:09:20;;;;;;;2.97;1.10;;;;;;;;;;6219099;28;20042;-83
2023/10/15 11:12:22;;;;;;;3.13;1.00;;;;;;;;;;6219318;28;20053;-84
2023/10/15 11:15:24;;;;;;;1.35;1.10;;;;;;;;;;6221879;28;20060;-83
2023/10/15 11:18:26;;;;;;;2.50;1.30;;;;;;;;;;6237771;28;20057;-84
2023/10/15 11:21:28;;;;;;;1.95;1.20;;;;;;;;;;6222540;28;20053;-84
2023/10/15 11:24:30;;;;;;;4.03;1.40;;;;;;;;;;6217863;28;20045;-84
2023/10/15 11:27:32;;;;;;;1.50;1.35;;;;;;;;;;6227488;28;20052;-83
2023/10/15 11:30:33;;;;;;;2.15;1.35;;;;;;;;;;6242147;28;20045;-84
2023/10/15 11:33:35;;;;;;;2.97;1.10;;;;;;;;;;6249323;28;20079;-86
2023/10/15 11:36:37;;;;;;;2.75;1.20;;;;;;;;;;6225147;28;20114;-85
2023/10/15 11:39:47;;;;;;;3.45;1.23;;;;;;;;;;6208192;28;20079;-86
2023/10/15 11:42:52;;;;;;;3.75;1.10;;;;;;;;;;6206092;28;20045;-87
2023/10/15 11:46:07;;;;;;;5.10;2.00;;;;;;;;;;6219370;28;20052;-86
2023/10/15 11:49:09;;;;;;;1.73;1.00;;;;;;;;;;6225434;28;20053;-86
2023/10/15 11:52:14;;;;;;;1.47;1.00;;;;;;;;;;6224849;28;20049;-87
2023/10/15 11:55:20;;;;;;;4.50;0.90;;;;;;;;;;6216898;28;20463;-86
2023/10/15 11:58:27;;;;;;;2.85;1.00;;;;;;;;;;6228526;28;20106;-86
2023/10/15 12:01:29;;;;;;;3.13;1.00;;;;;;;;;;6241859;28;20078;-85
2023/10/15 12:04:30;;;;;;;1.47;1.20;;;;;;;;;;6229213;28;20049;-88
2023/10/15 12:07:33;;;;;;;2.65;1.13;;;;;;;;;;6223932;28;20048;-84
2023/10/15 12:10:34;;;;;;;1.43;0.90;;;;;;;;;;6231874;28;20057;-85
2023/10/15 12:13:39;;;;;;;3.25;1.10;;;;;;;;;;6230996;28;20091;-84
2023/10/15 12:16:41;;;;;;;2.67;1.90;;;;;;;;;;6249374;28;20068;-84
2023/10/15 12:19:44;;;;;;;2.67;0.93;;;;;;;;;;6229936;28;20045;-85
2023/10/15 12:22:46;;;;;;;2.75;1.08;;;;;;;;;;6214466;28;20247;-83
2023/10/15 12:25:48;;;;;;;1.30;1.10;;;;;;;;;;6227981;28;20096;-84
2023/10/15 12:28:51;;;;;;;0.65;0.65;;;;;;;;;;6250930;28;20100;-84
2023/10/15 12:31:55;;;;;;;3.13;1.17;;;;;;;;;;6247945;28;20123;-83
2023/10/15 12:34:58;;;;;;;3.65;1.00;;;;;;;;;;6214683;28;20132;-83
2023/10/15 12:38:02;;;;;;;1.17;0.90;;;;;;;;;;6248629;28;20041;-84
2023/10/15 12:41:05;;;;;;;0.98;0.80;;;;;;;;;;6216069;28;20056;-85
2023/10/15 12:44:10;;;;;;;0.60;0.60;;;;;;;;;;6214128;28;20046;-84
2023/10/15 12:47:12;;;;;;;1.00;0.90;;;;;;;;;;6212704;28;20056;-85
2023/10/15 12:50:14;;;;;;;1.15;0.85;;;;;;;;;;6225886;28;20056;-86
2023/10/15 12:53:17;;;;;;;1.23;0.80;;;;;;;;;;6233897;28;20076;-84
2023/10/15 12:56:19;;;;;;;1.77;0.70;;;;;;;;;;6237141;28;20059;-85
2023/10/15 12:59:20;;;;;;;1.15;0.60;;;;;;;;;;6236144;28;20041;-84
2023/10/15 13:02:22;;;;;;;1.58;0.60;;;;;;;;;;6214426;28;20110;-84
2023/10/15 13:05:25;;;;;;;1.00;0.68;;;;;;;;;;6233637;28;20049;-85
2023/10/15 13:08:28;;;;;;;2.30;0.80;;;;;;;;;;6203406;28;20037;-82
2023/10/15 13:11:32;;;;;;;2.00;0.70;;;;;;;;;;6215663;28;20049;-84
2023/10/15 13:14:34;;;;;;;1.20;0.70;;;;;;;;;;6210309;28;20883;-83
2023/10/15 13:17:38;;;;;;;0.77;0.77;;;;;;;;;;6231459;28;20083;-83
2023/10/15 13:20:40;;;;;;;2.38;0.95;;;;;;;;;;6221261;28;20459;-83
2023/10/15 13:23:42;;;;;;;0.93;0.70;;;;;;;;;;6249351;22;20413;-78
2023/10/15 13:26:45;;;;;;;1.05;0.65;;;;;;;;;;6250806;28;20139;-77
2023/10/15 13:29:47;;;;;;;;;;;;;;;;;;6242386;28;20131;-79
2023/10/15 13:32:48;;;;;;;1.55;0.90;;;;;;;;;;6236197;28;19947;-79
2023/10/15 13:35:51;;;;;;;1.00;0.80;;;;;;;;;;6250278;28;20056;-78
2023/10/15 13:38:53;;;;;;;0.98;0.60;;;;;;;;;;6252506;28;20040;-78
2023/10/15 13:41:55;;;;;;;5.10;1.23;;;;;;;;;;6230558;28;20109;-79
2023/10/15 13:44:57;;;;;;;5.68;2.65;;;;;;;;;;6243497;28;20044;-79
2023/10/15 13:47:59;;;;;;;3.38;1.70;;;;;;;;;;6249155;28;20048;-78
2023/10/15 13:51:00;;;;;;;4.60;3.47;;;;;;;;;;6249541;28;20036;-79
2023/10/15 13:54:03;;;;;;;2.58;1.17;;;;;;;;;;6244200;28;20491;-79
2023/10/15 13:57:04;;;;;;;2.17;0.98;;;;;;;;;;6248042;28;20080;-79
2023/10/15 14:00:18;;;;;;;2.25;1.20;;;;;;;;;;6232389;28;20597;-78
2023/10/15 14:03:20;;;;;;;1.27;0.85;;;;;;;;;;6250263;28;20111;-78
2023/10/15 14:06:22;;;;;;;2.85;0.90;;;;;;;;;;6245518;28;20136;-78
2023/10/15 14:09:27;;;;;;;1.33;0.93;;;;;;;;;;6249445;28;20091;-78
2023/10/15 14:12:30;;;;;;;1.88;0.90;;;;;;;;;;6248426;28;20606;-78
2023/10/15 14:15:33;;;;;;;1.42;1.17;;;;;;;;;;6244734;28;20525;-78
2023/10/15 14:18:35;;;;;;;1.35;1.02;;;;;;;;;;6233053;28;20048;-78
2023/10/15 14:21:37;;;;;;;1.48;0.95;;;;;;;;;;6226363;28;20423;-78
2023/10/15 14:24:46;;;;;;;1.67;0.90;;;;;;;;;;6244547;28;20045;-78
2023/10/15 14:27:48;;;;;;;1.08;0.80;;;;;;;;;;6245633;28;20500;-78
2023/10/15 14:30:52;;;;;;;2.30;1.20;;;;;;;;;;6245543;28;20041;-78
2023/10/15 14:33:56;;;;;;;2.58;1.00;;;;;;;;;;6248964;28;20143;-78
2023/10/15 14:37:02;;;;;;;1.33;0.93;;;;;;;;;;6248892;28;20045;-78
2023/10/15 14:40:07;;;;;;;1.15;0.98;;;;;;;;;;6230558;28;21918;-79
2023/10/15 14:43:09;;;;;;;2.83;1.13;;;;;;;;;;6228831;28;20075;-78
2023/10/15 14:46:10;;;;;;;1.13;0.95;;;;;;;;;;6225700;28;20048;-78
2023/10/15 14:49:12;;;;;;;2.30;1.02;;;;;;;;;;6221609;28;20098;-78
2023/10/15 14:52:14;;;;;;;1.52;0.88;;;;;;;;;;6225751;28;20045;-78
2023/10/15 14:55:16;;;;;;;1.00;0.75;;;;;;;;;;6223189;28;20115;-78
2023/10/15 14:58:18;;;;;;;2.57;1.10;;;;;;;;;;6226009;28;20426;-78
2023/10/15 15:01:20;;;;;;;0.73;0.70;;;;;;;;;;6228805;28;20140;-78
2023/10/15 15:04:27;;;;;;;2.20;0.90;;;;;;;;;;6254221;28;20041;-78
2023/10/15 15:07:30;;;;;;;1.10;1.00;;;;;;;;;;6220063;28;20042;-79
2023/10/15 15:10:34;;;;;;;0.80;0.80;;;;;;;;;;6239573;28;20049;-78
2023/10/15 15:13:36;;;;;;;1.10;0.80;;;;;;;;;;6224558;28;20503;-79
2023/10/15 15:16:38;;;;;;;1.30;0.93;;;;;;;;;;6230477;28;20052;-79
2023/10/15 15:19:43;;;;;;;0.90;0.90;;;;;;;;;;6246180;28;20053;-78
2023/10/15 15:22:47;;;;;;;1.27;0.90;;;;;;;;;;6245635;28;20131;-79
2023/10/15 15:25:49;;;;;;;1.10;1.00;;;;;;;;;;6244769;28;20041;-79
2023/10/15 15:28:51;;;;;;;1.35;0.98;;;;;;;;;;6244267;28;20048;-79
2023/10/15 15:31:54;;;;;;;1.02;1.00;;;;;;;;;;6231020;28;20048;-79
2023/10/15 15:34:56;;;;;;;1.85;0.90;;;;;;;;;;6228982;28;20045;-78
2023/10/15 15:37:57;;;;;;;1.65;0.90;;;;;;;;;;6230404;28;20049;-78
2023/10/15 15:41:05;;;;;;;1.25;0.93;;;;;;;;;;6249090;28;20068;-79
2023/10/15 15:44:08;;;;;;;1.25;0.82;;;;;;;;;;6210467;28;20107;-79
2023/10/15 15:47:11;;;;;;;1.50;0.80;;;;;;;;;;6245732;28;20092;-78
2023/10/15 15:50:12;;;;;;;1.95;0.93;;;;;;;;;;6244098;28;20041;-79
2023/10/15 15:53:14;;;;;;;1.70;1.30;;;;;;;;;;6243795;28;20060;-78
2023/10/15 15:56:16;;;;;;;3.55;1.08;;;;;;;;;;6229202;28;20079;-78
2023/10/15 15:59:18;;;;;;;1.83;1.05;;;;;;;;;;6221454;28;20582;-79
2023/10/15 16:02:20;;;;;;;1.98;1.00;;;;;;;;;;6225255;28;20499;-78
2023/10/15 16:05:22;;;;;;;1.65;1.00;;;;;;;;;;6229113;28;20041;-77
2023/10/15 16:08:24;;;;;;;2.58;1.17;;;;;;;;;;6217454;28;20121;-78
2023/10/15 16:11:26;;;;;;;5.55;3.05;;;;;;;;;;6248361;28;20048;-78
2023/10/15 16:14:28;;;;;;;3.20;1.50;;;;;;;;;;6246552;28;20530;-78
2023/10/15 16:17:30;;;;;;;6.47;2.15;;;;;;;;;;6250575;28;20071;-77
2023/10/15 16:20:33;;;;;;;3.00;1.63;;;;;;;;;;6224897;28;20048;-78
2023/10/15 16:23:35;;;;;;;7.10;3.30;;;;;;;;;;6252555;28;20548;-78
2023/10/15 16:26:37;;;;;;;2.03;1.33;;;;;;;;;;6245902;28;20515;-77
2023/10/15 16:29:39;;;;;;;2.60;1.50;;;;;;;;;;6247993;28;20044;-77
2023/10/15 16:32:40;;;;;;;1.80;1.38;;;;;;;;;;6252062;28;20048;-78
2023/10/15 16:35:43;;;;;;;1.42;1.33;;;;;;;;;;6255317;28;20044;-77
2023/10/15 16:38:45;;;;;;;1.23;1.10;;;;;;;;;;6251901;28;20237;-77
2023/10/15 16:41:48;;;;;;;2.30;1.63;;;;;;;;;;6249889;28;20119;-77
2023/10/15 16:44:50;;;;;;;7.75;3.60;;;;;;;;;;6227036;28;20052;-78
2023/10/15 16:47:51;;;;;;;2.22;1.90;;;;;;;;;;6252052;28;20501;-78
2023/10/15 16:50:53;;;;;;;2.70;1.70;;;;;;;;;;6257775;28;20051;-78
2023/10/15 16:54:07;;;;;;;3.10;2.80;;;;;;;;;;6225302;28;20112;-77
2023/10/15 16:57:09;;;;;;;3.65;1.77;;;;;;;;;;6249224;28;20248;-77
2023/10/15 17:00:11;;;;;;;2.63;2.10;;;;;;;;;;6230403;28;20041;-77
2023/10/15 17:03:13;;;;;;;5.28;2.78;;;;;;;;;;6257926;28;20556;-78
2023/10/15 17:06:15;;;;;;;3.53;1.60;;;;;;;;;;6257970;28;20076;-77
2023/10/15 17:09:16;;;;;;;3.22;1.60;;;;;;;;;;6239229;28;20052;-77
2023/10/15 17:12:18;;;;;;;2.97;1.55;;;;;;;;;;6236107;28;20057;-77
2023/10/15 17:15:20;;;;;;;2.63;1.67;;;;;;;;;;6223119;28;20045;-77
2023/10/15 17:18:22;;;;;;;2.67;1.45;;;;;;;;;;6251384;28;20045;-77
2023/10/15 17:21:24;;;;;;;4.88;2.00;;;;;;;;;;6239667;28;20074;-78
2023/10/15 17:24:28;;;;;;;3.17;2.13;;;;;;;;;;6245860;28;20049;-77
2023/10/15 17:27:32;;;;;;;4.18;2.08;;;;;;;;;;6254965;28;20044;-77
2023/10/15 17:30:36;;;;;;;3.70;2.00;;;;;;;;;;6247930;28;20041;-77
2023/10/15 17:33:38;;;;;;;3.92;2.10;;;;;;;;;;6258145;28;20045;-78
2023/10/15 17:36:45;;;;;;;5.45;2.80;;;;;;;;;;6242124;28;20048;-76
2023/10/15 17:39:55;;;;;;;14.45;5.13;;;;;;;;;;6250216;28;20059;-77
2023/10/15 17:42:58;;;;;;;14.83;7.80;;;;;;;;;;6252894;28;20075;-77
2023/10/15 17:46:00;;;;;;;11.38;6.18;;;;;;;;;;6242664;28;20045;-77
2023/10/15 17:49:02;;;;;;;6.25;3.63;;;;;;;;;;6234823;28;20053;-78
2023/10/15 17:52:06;;;;;;;7.15;4.07;;;;;;;;;;6138484;28;20042;-78
2023/10/15 17:55:08;;;;;;;13.93;6.65;;;;;;;;;;6148808;28;20047;-77
2023/10/15 17:58:11;;;;;;;12.65;7.30;;;;;;;;;;6146687;28;20069;-78
2023/10/15 18:01:14;;;;;;;11.13;7.27;;;;;;;;;;6133830;28;20070;-78
2023/10/15 18:04:16;;;;;;;9.75;5.55;;;;;;;;;;6130855;28;20049;-78
2023/10/15 18:07:19;;;;;;;6.65;4.15;;;;;;;;;;6147085;28;20421;-78
2023/10/15 18:10:22;;;;;;;4.73;3.40;;;;;;;;;;6208034;28;20053;-78
2023/10/15 18:13:26;;;;;;;5.50;3.97;;;;;;;;;;6240556;28;20045;-78
2023/10/15 18:16:28;;;;;;;5.82;3.70;;;;;;;;;;6249358;28;20043;-77
2023/10/15 18:19:30;;;;;;;6.85;4.80;;;;;;;;;;6249619;28;20045;-77
2023/10/15 18:22:32;;;;;;;7.00;4.68;;;;;;;;;;6226224;28;20198;-78
2023/10/15 18:25:33;;;;;;;6.78;4.70;;;;;;;;;;6236077;28;20041;-79
2023/10/15 18:28:35;;;;;;;20.02;9.52;;;;;;;;;;6235572;28;20249;-78
2023/10/15 18:31:37;;;;;;;12.00;6.70;;;;;;;;;;6231947;28;20067;-79
2023/10/15 18:34:39;;;;;;;15.90;7.65;;;;;;;;;;6243326;28;20051;-78